createdAt,value
2019-02-21T00:02:25.535Z,19.43
2019-02-21T00:04:53.745Z,15.47
2019-02-21T00:07:21.924Z,16.63
2019-02-21T00:09:50.111Z,17.07
2019-02-21T00:12:18.293Z,19.23
2019-02-21T00:14:46.518Z,16.07
2019-02-21T00:17:14.705Z,19.70
2019-02-21T00:19:42.880Z,15.73
2019-02-21T00:22:11.557Z,16.43
2019-02-21T00:24:40.107Z,25.77
2019-02-21T00:27:08.440Z,16.55
2019-02-21T00:29:36.623Z,17.80
2019-02-21T00:32:04.818Z,15.87
2019-02-21T00:34:33.046Z,21.83
2019-02-21T00:37:01.305Z,19.30
2019-02-21T00:39:29.513Z,19.47
2019-02-21T00:41:57.725Z,20.93
2019-02-21T00:44:25.966Z,18.93
2019-02-21T00:46:55.845Z,18.97
2019-02-21T00:49:24.062Z,21.43
2019-02-21T00:51:52.241Z,20.65
2019-02-21T00:54:20.498Z,17.40
2019-02-21T00:56:48.740Z,17.10
2019-02-21T00:59:16.993Z,23.03
2019-02-21T01:01:45.171Z,19.90
2019-02-21T01:04:13.383Z,20.30
2019-02-21T01:06:41.634Z,17.37
2019-02-21T01:09:09.847Z,16.77
2019-02-21T01:11:38.093Z,18.83
2019-02-21T01:14:06.579Z,22.83
2019-02-21T01:16:34.785Z,17.43
2019-02-21T01:19:02.977Z,17.00
2019-02-21T01:21:31.336Z,18.00
2019-02-21T01:23:59.519Z,19.00
2019-02-21T01:26:27.739Z,20.33
2019-02-21T01:28:55.916Z,24.20
2019-02-21T01:31:24.137Z,17.67
2019-02-21T01:33:52.325Z,20.50
2019-02-21T01:36:20.552Z,19.50
2019-02-21T01:38:48.805Z,15.53
2019-02-21T01:41:17.021Z,20.20
2019-02-21T01:43:45.237Z,18.87
2019-02-21T01:46:13.496Z,18.80
2019-02-21T01:48:41.790Z,23.50
2019-02-21T01:51:10.006Z,21.40
2019-02-21T01:53:38.179Z,22.47
2019-02-21T01:56:06.407Z,18.30
2019-02-21T01:58:34.614Z,19.57
2019-02-21T02:01:08.571Z,19.40
2019-02-21T02:03:32.748Z,21.33
2019-02-21T02:06:00.931Z,21.75
2019-02-21T02:08:29.141Z,18.95
2019-02-21T02:10:57.336Z,19.63
2019-02-21T02:13:25.575Z,22.60
2019-02-21T02:15:53.777Z,23.73
2019-02-21T02:18:21.965Z,24.70
2019-02-21T02:20:50.197Z,22.80
2019-02-21T02:23:18.383Z,23.50
2019-02-21T02:25:46.607Z,20.97
2019-02-21T02:28:14.861Z,26.17
2019-02-21T02:30:43.085Z,22.40
2019-02-21T02:33:11.312Z,26.60
2019-02-21T02:35:39.493Z,28.27
2019-02-21T02:38:08.636Z,25.73
2019-02-21T02:40:36.828Z,26.80
2019-02-21T02:43:05.078Z,25.20
2019-02-21T02:45:33.290Z,33.50
2019-02-21T02:48:01.508Z,22.27
2019-02-21T02:50:29.784Z,24.63
2019-02-21T02:52:58.077Z,28.43
2019-02-21T02:55:26.401Z,25.77
2019-02-21T02:57:54.580Z,31.60
2019-02-21T03:00:22.801Z,31.30
2019-02-21T03:02:51.117Z,31.30
2019-02-21T03:05:19.336Z,29.00
2019-02-21T03:07:47.592Z,34.77
2019-02-21T03:10:15.845Z,25.53
2019-02-21T03:12:44.027Z,31.50
2019-02-21T03:15:12.382Z,25.60
2019-02-21T03:17:40.608Z,33.00
2019-02-21T03:20:09.407Z,27.87
2019-02-21T03:22:37.699Z,28.33
2019-02-21T03:25:06.468Z,35.13
2019-02-21T03:27:34.685Z,27.30
2019-02-21T03:30:03.071Z,30.63
2019-02-21T03:32:31.358Z,29.93
2019-02-21T03:34:59.569Z,30.90
2019-02-21T03:37:27.791Z,29.80
2019-02-21T03:39:56.005Z,30.67
2019-02-21T03:42:24.188Z,40.60
2019-02-21T03:44:52.392Z,30.33
2019-02-21T03:47:20.612Z,28.13
2019-02-21T03:49:48.837Z,33.63
2019-02-21T03:52:17.037Z,35.07
2019-02-21T03:54:45.228Z,29.43
2019-02-21T03:57:13.454Z,33.70
2019-02-21T03:59:41.701Z,35.27
2019-02-21T04:02:09.918Z,32.73
2019-02-21T04:04:38.242Z,35.03
2019-02-21T04:07:06.468Z,33.67
2019-02-21T04:09:34.745Z,35.47
2019-02-21T04:12:02.963Z,38.93
2019-02-21T04:14:31.282Z,36.57
2019-02-21T04:16:59.500Z,33.80
2019-02-21T04:19:27.724Z,33.13
2019-02-21T04:21:55.921Z,39.93
2019-02-21T04:24:24.101Z,38.07
2019-02-21T04:26:52.323Z,35.90
2019-02-21T04:29:20.640Z,34.07
2019-02-21T04:31:48.864Z,41.30
2019-02-21T04:34:17.048Z,35.50
2019-02-21T04:36:45.298Z,33.10
2019-02-21T04:39:13.509Z,45.83
2019-02-21T04:41:41.690Z,37.10
2019-02-21T04:44:09.942Z,37.87
2019-02-21T04:46:38.154Z,38.43
2019-02-21T04:49:06.376Z,35.13
2019-02-21T04:51:34.557Z,42.43
2019-02-21T04:54:02.776Z,40.13
2019-02-21T04:56:30.990Z,42.20
2019-02-21T04:58:59.208Z,46.90
2019-02-21T05:01:27.435Z,38.43
2019-02-21T05:03:55.731Z,47.30
2019-02-21T05:06:23.916Z,37.57
2019-02-21T05:08:52.130Z,44.70
2019-02-21T05:11:20.419Z,44.67
2019-02-21T05:13:48.642Z,49.17
2019-02-21T05:16:16.864Z,43.13
2019-02-21T05:18:45.086Z,36.25
2019-02-21T05:21:13.369Z,43.30
2019-02-21T05:23:41.560Z,41.90
2019-02-21T05:26:11.424Z,42.90
2019-02-21T05:28:41.297Z,47.40
2019-02-21T05:31:17.100Z,49.93
2019-02-21T05:33:56.135Z,43.07
2019-02-21T05:36:26.067Z,51.00
2019-02-21T05:38:55.984Z,43.37
2019-02-21T05:41:35.089Z,51.17
2019-02-21T05:44:04.970Z,56.53
2019-02-21T05:46:51.094Z,51.97
2019-02-21T05:49:26.974Z,55.20
2019-02-21T05:51:56.899Z,53.80
2019-02-21T05:54:27.356Z,49.47
2019-02-21T05:56:59.899Z,57.30
2019-02-21T05:59:29.762Z,52.20
2019-02-21T06:01:59.653Z,55.33
2019-02-21T06:04:46.161Z,61.23
2019-02-21T06:07:16.057Z,54.20
2019-02-21T06:09:48.333Z,58.17
2019-02-21T06:12:18.196Z,51.53
2019-02-21T06:14:51.045Z,53.33
2019-02-21T06:17:21.005Z,53.97
2019-02-21T06:19:56.333Z,54.93
2019-02-21T06:22:29.104Z,47.07
2019-02-21T06:24:58.922Z,48.73
2019-02-21T06:27:37.786Z,52.93
2019-02-21T06:30:07.841Z,49.07
2019-02-21T06:32:36.062Z,50.27
2019-02-21T06:35:05.485Z,54.00
2019-02-21T06:37:33.701Z,50.53
2019-02-21T06:40:01.883Z,58.50
2019-02-21T06:42:30.143Z,47.80
2019-02-21T06:44:58.321Z,53.47
2019-02-21T06:47:26.577Z,49.20
2019-02-21T06:49:54.756Z,53.70
2019-02-21T06:52:22.988Z,49.90
2019-02-21T06:54:51.242Z,52.50
2019-02-21T06:57:19.420Z,53.10
2019-02-21T06:59:47.673Z,50.37
2019-02-21T07:02:15.856Z,56.47
2019-02-21T07:04:44.105Z,52.93
2019-02-21T07:07:12.322Z,54.40
2019-02-21T07:09:40.509Z,54.90
2019-02-21T07:12:10.671Z,56.77
2019-02-21T07:14:38.795Z,49.00
2019-02-21T07:17:08.528Z,49.30
2019-02-21T07:19:36.986Z,49.63
2019-02-21T07:22:06.272Z,57.30
2019-02-21T07:24:35.098Z,55.33
2019-02-21T07:27:03.348Z,47.73
2019-02-21T07:29:31.564Z,55.03
2019-02-21T07:31:59.784Z,50.10
2019-02-21T07:34:30.359Z,53.13
2019-02-21T07:36:57.898Z,44.90
2019-02-21T07:39:35.656Z,51.80
2019-02-21T07:41:56.031Z,48.93
2019-02-21T07:44:24.244Z,49.70
2019-02-21T07:46:53.440Z,52.27
2019-02-21T07:49:21.827Z,48.60
2019-02-21T07:51:50.090Z,48.40
2019-02-21T07:54:18.322Z,53.90
2019-02-21T07:56:46.576Z,50.67
2019-02-21T07:59:14.780Z,49.20
2019-02-21T08:01:42.964Z,55.30
2019-02-21T08:04:11.211Z,50.67
2019-02-21T08:06:39.427Z,50.53
2019-02-21T08:09:08.213Z,52.30
2019-02-21T08:11:36.408Z,53.57
2019-02-21T08:14:04.626Z,53.50
2019-02-21T08:16:32.874Z,50.40
2019-02-21T08:19:01.060Z,49.50
2019-02-21T08:21:29.484Z,48.60
2019-02-21T08:23:59.286Z,48.13
2019-02-21T08:26:27.596Z,49.37
2019-02-21T08:28:55.817Z,49.70
2019-02-21T08:31:24.109Z,51.10
2019-02-21T08:33:59.873Z,54.50
2019-02-21T08:36:28.053Z,56.87
2019-02-21T08:38:56.313Z,58.83
2019-02-21T08:41:25.808Z,57.17
2019-02-21T08:43:54.221Z,51.00
2019-02-21T08:46:22.485Z,58.97
2019-02-21T08:48:50.779Z,57.37
2019-02-21T08:51:19.528Z,63.50
2019-02-21T08:53:47.725Z,70.13
2019-02-21T08:56:16.046Z,54.93
2019-02-21T08:58:44.276Z,55.27
2019-02-21T09:01:12.533Z,60.00
2019-02-21T09:03:40.745Z,64.13
2019-02-21T09:06:08.962Z,60.47
2019-02-21T09:08:37.363Z,54.63
2019-02-21T09:11:05.733Z,52.13
2019-02-21T09:13:34.045Z,55.73
2019-02-21T09:16:02.231Z,52.43
2019-02-21T09:18:30.452Z,58.33
2019-02-21T09:20:58.636Z,56.40
2019-02-21T09:23:26.899Z,50.03
2019-02-21T09:25:55.109Z,52.67
2019-02-21T09:28:23.291Z,59.57
2019-02-21T09:30:51.489Z,60.63
2019-02-21T09:33:21.310Z,59.30
2019-02-21T09:35:49.684Z,49.00
2019-02-21T09:38:17.875Z,53.90
2019-02-21T09:40:46.075Z,53.57
2019-02-21T09:43:14.264Z,59.17
2019-02-21T09:45:42.484Z,47.30
2019-02-21T09:48:12.061Z,58.77
2019-02-21T09:50:40.441Z,61.10
2019-02-21T09:53:08.690Z,53.33
2019-02-21T09:55:36.907Z,54.30
2019-02-21T09:58:05.244Z,54.47
2019-02-21T10:00:35.901Z,63.03
2019-02-21T10:03:03.404Z,53.20
2019-02-21T10:05:31.641Z,53.10
2019-02-21T10:07:59.849Z,48.33
2019-02-21T10:10:28.102Z,48.47
2019-02-21T10:12:56.331Z,49.20
2019-02-21T10:15:24.613Z,47.07
2019-02-21T10:17:53.503Z,50.53
2019-02-21T10:20:22.116Z,48.20
2019-02-21T10:22:50.334Z,46.20
2019-02-21T10:25:26.047Z,44.93
2019-02-21T10:27:54.257Z,47.23
2019-02-21T10:30:23.120Z,52.27
2019-02-21T10:32:51.511Z,44.80
2019-02-21T10:35:19.706Z,42.00
2019-02-21T10:37:47.987Z,44.33
2019-02-21T10:40:16.469Z,41.60
2019-02-21T10:42:44.718Z,41.70
2019-02-21T10:45:16.849Z,50.53
2019-02-21T10:47:45.072Z,45.10
2019-02-21T10:50:14.457Z,42.07
2019-02-21T10:52:42.790Z,39.80
2019-02-21T10:55:11.469Z,43.63
2019-02-21T10:57:39.686Z,48.37
2019-02-21T11:00:09.437Z,47.57
2019-02-21T11:02:37.619Z,47.13
2019-02-21T11:05:07.580Z,43.10
2019-02-21T11:07:35.829Z,44.30
2019-02-21T11:10:05.588Z,42.50
2019-02-21T11:12:33.909Z,40.40
2019-02-21T11:15:02.129Z,42.93
2019-02-21T11:17:30.381Z,39.80
2019-02-21T11:19:58.617Z,41.20
2019-02-21T11:22:26.828Z,39.40
2019-02-21T11:24:55.045Z,38.53
2019-02-21T11:29:50.662Z,36.55
2019-02-21T11:32:18.885Z,30.70
2019-02-21T11:37:14.515Z,33.13
2019-02-21T11:39:42.785Z,32.40
2019-02-21T11:42:10.968Z,34.13
2019-02-21T11:44:39.180Z,35.73
2019-02-21T11:47:07.375Z,32.97
2019-02-21T11:49:35.589Z,32.70
2019-02-21T11:52:10.283Z,28.57
2019-02-21T11:54:33.722Z,29.90
2019-02-21T11:57:01.971Z,29.27
2019-02-21T11:59:30.167Z,28.90
2019-02-21T12:01:58.424Z,29.23
2019-02-21T12:04:26.713Z,29.77
2019-02-21T12:06:54.895Z,27.50
2019-02-21T12:09:23.121Z,26.60
2019-02-21T12:11:51.339Z,27.80
2019-02-21T12:14:19.561Z,28.47
2019-02-21T12:16:47.980Z,32.13
2019-02-21T12:19:16.253Z,29.73
2019-02-21T12:21:44.540Z,33.03
2019-02-21T12:24:12.946Z,24.17
2019-02-21T12:26:41.161Z,31.00
2019-02-21T12:29:09.382Z,28.17
2019-02-21T12:31:37.598Z,28.70
2019-02-21T12:34:05.841Z,22.80
2019-02-21T12:36:34.031Z,27.90
2019-02-21T12:39:02.314Z,28.00
2019-02-21T12:41:30.497Z,27.00
2019-02-21T12:43:58.717Z,31.77
2019-02-21T12:46:26.981Z,25.23
2019-02-21T12:48:55.188Z,23.30
2019-02-21T12:51:23.405Z,26.23
2019-02-21T12:53:51.650Z,26.17
2019-02-21T12:56:19.869Z,29.30
2019-02-21T12:58:48.121Z,24.40
2019-02-21T13:01:16.337Z,29.50
2019-02-21T13:03:44.572Z,25.87
2019-02-21T13:06:12.756Z,29.77
2019-02-21T13:08:41.009Z,25.40
2019-02-21T13:11:09.188Z,25.87
2019-02-21T13:13:37.453Z,23.33
2019-02-21T13:16:05.664Z,30.50
2019-02-21T13:18:33.877Z,27.90
2019-02-21T13:21:02.135Z,26.17
2019-02-21T13:23:30.360Z,27.33
2019-02-21T13:25:58.576Z,25.30
2019-02-21T13:28:26.759Z,25.17
2019-02-21T13:30:55.007Z,25.27
2019-02-21T13:33:23.219Z,23.50
2019-02-21T13:35:52.891Z,25.70
2019-02-21T13:38:21.420Z,27.60
2019-02-21T13:40:49.697Z,21.50
2019-02-21T13:43:17.984Z,26.50
2019-02-21T13:45:46.247Z,29.83
2019-02-21T13:48:14.478Z,25.20
2019-02-21T13:50:42.685Z,28.60
2019-02-21T13:53:10.873Z,21.83
2019-02-21T13:55:39.099Z,24.63
2019-02-21T13:58:07.397Z,26.77
2019-02-21T14:00:35.725Z,27.13
2019-02-21T14:03:03.977Z,27.37
2019-02-21T14:05:32.257Z,25.93
2019-02-21T14:08:00.517Z,24.93
2019-02-21T14:10:28.732Z,20.27
2019-02-21T14:12:56.988Z,21.63
2019-02-21T14:15:29.739Z,24.03
2019-02-21T14:17:57.937Z,17.77
2019-02-21T14:20:26.163Z,18.03
2019-02-21T14:22:54.383Z,24.13
2019-02-21T14:25:22.692Z,18.33
2019-02-21T14:27:50.907Z,21.03
2019-02-21T14:30:19.784Z,19.83
2019-02-21T14:32:47.993Z,16.33
2019-02-21T14:35:16.335Z,18.03
2019-02-21T14:37:44.778Z,19.13
2019-02-21T14:40:14.077Z,22.53
2019-02-21T14:42:42.366Z,24.60
2019-02-21T14:45:12.636Z,18.63
2019-02-21T14:47:40.948Z,22.50
2019-02-21T14:50:10.248Z,22.30
2019-02-21T14:52:38.436Z,24.20
2019-02-21T14:55:08.192Z,24.40
2019-02-21T14:57:40.904Z,24.77
2019-02-21T15:00:08.043Z,26.37
2019-02-21T15:02:36.298Z,26.07
2019-02-21T15:05:05.619Z,27.77
2019-02-21T15:07:33.848Z,30.07
2019-02-21T15:10:02.033Z,28.20
2019-02-21T15:12:30.258Z,28.40
2019-02-21T15:14:58.484Z,31.30
2019-02-21T15:17:26.733Z,21.77
2019-02-21T15:19:54.949Z,25.60
2019-02-21T15:22:23.170Z,27.73
2019-02-21T15:24:51.378Z,23.80
2019-02-21T15:27:19.591Z,23.57
2019-02-21T15:29:47.840Z,26.30
2019-02-21T15:32:16.101Z,24.10
2019-02-21T15:34:47.063Z,27.23
2019-02-21T15:37:14.229Z,28.30
2019-02-21T15:39:43.031Z,23.67
2019-02-21T15:42:11.349Z,30.50
2019-02-21T15:44:39.593Z,33.70
2019-02-21T15:47:07.815Z,27.53
2019-02-21T15:49:36.069Z,27.07
2019-02-21T15:52:04.304Z,23.43
2019-02-21T15:54:32.562Z,26.70
2019-02-21T15:57:00.777Z,25.37
2019-02-21T15:59:28.964Z,25.53
2019-02-21T16:01:57.229Z,28.07
2019-02-21T16:04:25.518Z,28.80
2019-02-21T16:06:53.772Z,27.20
2019-02-21T16:09:22.000Z,25.50
2019-02-21T16:11:50.212Z,23.83
2019-02-21T16:14:18.486Z,29.90
2019-02-21T16:16:46.669Z,25.13
2019-02-21T16:19:14.896Z,27.63
2019-02-21T16:21:43.138Z,25.90
2019-02-21T16:24:11.401Z,26.50
2019-02-21T16:26:39.604Z,24.00
2019-02-21T16:29:07.878Z,29.07
2019-02-21T16:31:36.105Z,32.47
2019-02-21T16:34:04.401Z,23.80
2019-02-21T16:36:32.584Z,28.93
2019-02-21T16:39:00.772Z,27.40
2019-02-21T16:41:36.054Z,30.07
2019-02-21T16:43:58.940Z,25.13
2019-02-21T16:46:27.127Z,25.90
2019-02-21T16:48:55.355Z,34.00
2019-02-21T16:51:23.546Z,24.53
2019-02-21T16:53:51.728Z,24.70
2019-02-21T16:56:20.068Z,26.70
2019-02-21T16:58:48.356Z,31.03
2019-02-21T17:01:16.669Z,28.30
2019-02-21T17:03:45.981Z,28.50
2019-02-21T17:06:14.239Z,32.20
2019-02-21T17:08:42.422Z,30.70
2019-02-21T17:11:10.633Z,27.67
2019-02-21T17:13:38.902Z,27.77
2019-02-21T17:16:07.144Z,35.40
2019-02-21T17:18:35.405Z,32.40
2019-02-21T17:21:03.696Z,31.60
2019-02-21T17:23:31.926Z,31.90
2019-02-21T17:26:00.148Z,35.03
2019-02-21T17:28:28.403Z,30.53
2019-02-21T17:30:56.583Z,30.20
2019-02-21T17:33:24.825Z,32.20
2019-02-21T17:35:53.008Z,33.17
2019-02-21T17:38:21.253Z,35.20
2019-02-21T17:40:49.439Z,31.67
2019-02-21T17:43:17.669Z,35.37
2019-02-21T17:45:45.852Z,32.73
2019-02-21T17:48:14.078Z,34.80
2019-02-21T17:50:42.350Z,28.30
2019-02-21T17:53:10.570Z,33.03
2019-02-21T17:55:38.786Z,32.73
2019-02-21T17:58:06.968Z,31.97
2019-02-21T18:00:39.395Z,32.57
2019-02-21T18:03:07.645Z,30.03
2019-02-21T18:05:35.825Z,32.13
2019-02-21T18:08:04.205Z,32.87
2019-02-21T18:10:32.450Z,34.43
2019-02-21T18:13:00.706Z,36.27
2019-02-21T18:15:28.918Z,33.40
2019-02-21T18:17:57.169Z,38.37
2019-02-21T18:20:25.381Z,41.53
2019-02-21T18:22:53.561Z,46.23
2019-02-21T18:25:32.247Z,39.03
2019-02-21T18:28:00.440Z,44.60
2019-02-21T18:30:28.661Z,44.40
2019-02-21T18:32:56.855Z,54.20
2019-02-21T18:35:25.072Z,49.77
2019-02-21T18:37:53.285Z,55.07
2019-02-21T18:40:23.075Z,54.77
2019-02-21T18:42:51.284Z,56.90
2019-02-21T18:45:19.537Z,64.63
2019-02-21T18:47:47.828Z,63.00
2019-02-21T18:50:16.037Z,68.97
2019-02-21T18:52:44.289Z,66.23
2019-02-21T18:55:12.472Z,60.10
2019-02-21T18:57:40.734Z,65.63
2019-02-21T19:00:16.774Z,69.63
2019-02-21T19:02:45.039Z,80.60
2019-02-21T19:05:13.389Z,69.67
2019-02-21T19:07:41.579Z,89.43
2019-02-21T19:10:11.280Z,76.10
2019-02-21T19:12:39.505Z,72.37
2019-02-21T19:15:08.700Z,73.20
2019-02-21T19:17:37.001Z,82.53
2019-02-21T19:20:06.749Z,81.23
2019-02-21T19:22:35.001Z,79.83
2019-02-21T19:25:03.797Z,88.20
2019-02-21T19:27:37.191Z,89.87
2019-02-21T19:30:01.978Z,99.00
2019-02-21T19:32:30.188Z,95.07
2019-02-21T19:34:58.444Z,95.30
2019-02-21T19:37:26.657Z,89.70
2019-02-21T19:39:54.873Z,97.47
2019-02-21T19:42:23.104Z,97.10
2019-02-21T19:44:51.296Z,99.20
2019-02-21T19:47:19.565Z,91.97
2019-02-21T19:49:47.844Z,94.03
2019-02-21T19:52:16.060Z,102.83
2019-02-21T19:54:44.477Z,96.10
2019-02-21T19:57:12.733Z,102.30
2019-02-21T19:59:40.952Z,103.80
2019-02-21T20:02:09.204Z,103.57
2019-02-21T20:04:37.392Z,105.07
2019-02-21T20:07:05.649Z,106.40
2019-02-21T20:09:33.835Z,114.17
2019-02-21T20:12:02.080Z,106.90
2019-02-21T20:14:30.331Z,115.60
2019-02-21T20:16:58.570Z,117.87
2019-02-21T20:19:26.769Z,112.80
2019-02-21T20:21:55.049Z,119.27
2019-02-21T20:24:23.273Z,124.13
2019-02-21T20:26:51.537Z,109.90
2019-02-21T20:29:19.804Z,135.23
2019-02-21T20:31:48.017Z,116.47
2019-02-21T20:34:16.243Z,117.37
2019-02-21T20:36:51.034Z,112.47
2019-02-21T20:39:14.449Z,120.53
2019-02-21T20:41:42.709Z,118.87
2019-02-21T20:44:11.013Z,120.93
2019-02-21T20:46:39.333Z,115.05
2019-02-21T20:49:07.602Z,118.27
2019-02-21T20:51:35.788Z,128.13
2019-02-21T20:54:04.020Z,116.83
2019-02-21T20:56:32.247Z,128.53
2019-02-21T20:59:00.447Z,130.50
2019-02-21T21:01:28.917Z,138.30
2019-02-21T21:03:57.143Z,116.77
2019-02-21T21:06:25.396Z,128.57
2019-02-21T21:08:53.653Z,122.47
2019-02-21T21:11:21.869Z,127.20
2019-02-21T21:13:50.116Z,131.83
2019-02-21T21:16:18.310Z,122.13
2019-02-21T21:18:46.564Z,133.90
2019-02-21T21:21:14.787Z,114.80
2019-02-21T21:23:43.006Z,108.83
2019-02-21T21:26:11.224Z,118.50
2019-02-21T21:28:39.420Z,120.90
2019-02-21T21:31:07.669Z,116.17
2019-02-21T21:33:35.859Z,108.17
2019-02-21T21:36:04.189Z,108.30
2019-02-21T21:38:32.466Z,110.87
2019-02-21T21:41:00.723Z,111.87
2019-02-21T21:43:28.908Z,120.77
2019-02-21T21:45:57.150Z,113.97
2019-02-21T21:48:25.412Z,118.93
2019-02-21T21:50:53.695Z,128.73
2019-02-21T21:53:21.888Z,118.77
2019-02-21T21:55:50.153Z,128.87
2019-02-21T21:58:18.370Z,126.60
2019-02-21T22:00:46.597Z,121.03
2019-02-21T22:03:14.785Z,118.30
2019-02-21T22:05:43.009Z,120.10
2019-02-21T22:08:11.261Z,111.37
2019-02-21T22:10:39.538Z,107.50
2019-02-21T22:13:07.788Z,109.97
2019-02-21T22:15:35.983Z,103.77
2019-02-21T22:18:04.203Z,102.77
2019-02-21T22:20:32.430Z,101.30
2019-02-21T22:23:02.089Z,94.37
2019-02-21T22:25:30.617Z,98.00
2019-02-21T22:27:58.925Z,98.77
2019-02-21T22:30:27.172Z,96.10
2019-02-21T22:32:55.389Z,102.53
2019-02-21T22:35:23.645Z,97.87
2019-02-21T22:37:51.823Z,100.27
2019-02-21T22:40:20.423Z,91.37
2019-02-21T22:42:48.648Z,94.73
2019-02-21T22:45:16.908Z,103.00
2019-02-21T22:47:45.135Z,95.60
2019-02-21T22:50:16.915Z,98.37
2019-02-21T22:52:45.143Z,109.17
2019-02-21T22:55:13.336Z,102.00
2019-02-21T22:57:41.564Z,104.53
2019-02-21T23:00:30.991Z,98.93
2019-02-21T23:02:59.950Z,93.90
2019-02-21T23:05:29.709Z,97.30
2019-02-21T23:07:57.990Z,93.50
2019-02-21T23:10:26.261Z,100.70
2019-02-21T23:12:54.484Z,96.10
2019-02-21T23:15:22.777Z,90.00
2019-02-21T23:17:50.959Z,84.73
2019-02-21T23:20:19.297Z,93.77
2019-02-21T23:22:47.509Z,93.80
2019-02-21T23:25:15.696Z,95.73
2019-02-21T23:27:43.898Z,84.83
2019-02-21T23:30:12.179Z,88.93
2019-02-21T23:32:40.423Z,99.10
2019-02-21T23:35:08.977Z,87.53
2019-02-21T23:37:37.236Z,77.93
2019-02-21T23:40:05.560Z,61.83
2019-02-21T23:42:33.777Z,66.43
2019-02-21T23:45:02.024Z,61.10
2019-02-21T23:47:30.278Z,66.03
2019-02-21T23:49:58.490Z,60.60
2019-02-21T23:52:26.688Z,53.00
2019-02-21T23:54:54.909Z,53.40
2019-02-21T23:57:23.104Z,52.80
2019-02-21T23:59:51.796Z,51.20
